Devils Lake, ND

1:03 PM CDT on April 26, 2017 (GMT -0500)
Devils Lake Municipal

Weather History for KDVL - April, 2014

Change the Weather History Date:

Wednesday, April 16, 2014

  Actual Average Record
Temperature  
Mean Temperature 30 °F -  
Max Temperature 37 °F 54 °F 77 °F (1988)
Min Temperature 23 °F 31 °F 10 °F (1953)
Degree Days  
Heating Degree Days 35    
Moisture  
Dew Point 12 °F    
Average Humidity 49    
Maximum Humidity 69    
Minimum Humidity 33    
Precipitation  
Precipitation 0.00 in - - ()
Sea Level Pressure  
Sea Level Pressure 30.11 in    
Wind  
Wind Speed 17 mph (ENE)    
Max Wind Speed 23 mph    
Max Gust Speed 32 mph    
Visibility 10 miles    
Events      
Averages and records for this station are not official NWS values.
T = Trace of Precipitation, MM = Missing Value Source: NWS Daily Summary

Daily Weather History Graph

Daily Weather History Graph

Search for Another Location

Airport or City:

Trip Planner

Search our weather history database for the weather conditions in past years. The results will help you decide how hot, cold, wet, or windy it might be!

Date:

Astronomy

Apr. 16, 2014 Rise Set
Actual Time 6:44 AM CDT 8:27 PM CDT
Civil Twilight 6:11 AM CDT 9:00 PM CDT
Nautical Twilight 5:31 AM CDT 9:41 PM CDT
Astronomical Twilight 4:47 AM CDT 10:25 PM CDT
Moon 10:20 PM CDT (4/16) 7:27 AM CDT (4/16)
Length of Visible Light 14h 49m
Length of Day
13h 43m
Full, 98% of the Moon is Illuminated
Apr 16
Full
Apr 22
Last Quarter
Apr 29
New
May 6
First Quarter
May 14
Full

Hourly Weather History & Observations

Time (CDT) Temp. Windchill Dew Point Humidity Pressure Visibility Wind Dir Wind Speed Gust Speed Precip Events Conditions
12:15 AM 24.8 °F 10.7 °F 15.8 °F 69% 29.94 in 7.0 mi ESE 19.6 mph - N/A   Overcast
12:35 AM 26.6 °F 14.3 °F 15.8 °F 64% 29.94 in 10.0 mi East 16.1 mph - N/A   Overcast
12:55 AM 24.8 °F 11.5 °F 15.8 °F 69% 29.94 in 7.0 mi ESE 17.3 mph 24.2 mph N/A   Overcast
1:15 AM 24.8 °F 12.9 °F 15.8 °F 69% 29.94 in 10.0 mi East 13.8 mph 23.0 mph N/A   Overcast
1:35 AM 26.6 °F 13.4 °F 12.2 °F 55% 29.95 in 10.0 mi East 18.4 mph 26.5 mph N/A   Overcast
1:55 AM 26.6 °F 12.7 °F 12.2 °F 55% 29.95 in 10.0 mi ESE 20.7 mph 25.3 mph N/A   Overcast
2:15 AM 26.6 °F 13.8 °F 14.0 °F 59% 29.95 in 10.0 mi ESE 17.3 mph 24.2 mph N/A   Overcast
2:35 AM 26.6 °F 13.8 °F 14.0 °F 59% 29.95 in 10.0 mi East 17.3 mph 24.2 mph N/A   Overcast
2:55 AM 26.6 °F 14.3 °F 14.0 °F 59% 29.95 in 10.0 mi East 16.1 mph 27.6 mph N/A   Overcast
3:15 AM 26.6 °F 14.7 °F 15.8 °F 64% 29.96 in 10.0 mi East 15.0 mph 24.2 mph N/A   Overcast
3:35 AM 26.6 °F 13.1 °F 14.0 °F 59% 29.96 in 10.0 mi East 19.6 mph 24.2 mph N/A   Overcast
3:55 AM 26.6 °F 14.3 °F 15.8 °F 64% 29.96 in 10.0 mi East 16.1 mph 25.3 mph N/A   Overcast
4:15 AM 26.6 °F 13.8 °F 12.2 °F 55% 29.97 in 8.0 mi East 17.3 mph - N/A   Overcast
4:35 AM 24.8 °F 11.5 °F 14.0 °F 64% 29.98 in 7.0 mi East 17.3 mph 25.3 mph N/A   Overcast
4:55 AM 24.8 °F 11.5 °F 15.8 °F 69% 29.98 in 7.0 mi ENE 17.3 mph 21.9 mph N/A   Overcast
5:15 AM 24.8 °F 11.5 °F 14.0 °F 64% 29.99 in 5.0 mi ENE 17.3 mph 20.7 mph N/A   Overcast
5:35 AM 24.8 °F 11.9 °F 15.8 °F 69% 30.00 in 5.0 mi ENE 16.1 mph 23.0 mph N/A   Overcast
5:55 AM 23.0 °F 10.6 °F 14.0 °F 68% 30.00 in 5.0 mi ENE 13.8 mph - N/A   Overcast
6:15 AM 23.0 °F 9.6 °F 14.0 °F 68% 30.01 in 7.0 mi ENE 16.1 mph - N/A   Overcast
6:35 AM 23.0 °F 10.6 °F 14.0 °F 68% 30.01 in 5.0 mi ENE 13.8 mph 20.7 mph N/A   Overcast
6:55 AM 23.0 °F 9.2 °F 12.2 °F 63% 30.02 in 9.0 mi ENE 17.3 mph - N/A   Overcast
7:15 AM 24.8 °F 11.9 °F 12.2 °F 59% 30.03 in 10.0 mi ENE 16.1 mph 19.6 mph N/A   Overcast
7:35 AM 24.8 °F 12.4 °F 10.4 °F 54% 30.04 in 10.0 mi ENE 15.0 mph - N/A   Overcast
7:55 AM 24.8 °F 12.9 °F 10.4 °F 54% 30.05 in 10.0 mi ENE 13.8 mph - N/A   Overcast
8:15 AM 24.8 °F 11.9 °F 10.4 °F 54% 30.05 in 10.0 mi ENE 16.1 mph 19.6 mph N/A   Overcast
8:35 AM 24.8 °F 11.9 °F 10.4 °F 54% 30.06 in 10.0 mi ENE 16.1 mph - N/A   Mostly Cloudy
8:55 AM 26.6 °F 13.1 °F 10.4 °F 51% 30.07 in 10.0 mi ENE 19.6 mph 23.0 mph N/A   Overcast
9:15 AM 26.6 °F 13.4 °F 10.4 °F 51% 30.08 in 10.0 mi ENE 18.4 mph 24.2 mph N/A   Overcast
9:35 AM 28.4 °F 15.4 °F 10.4 °F 47% 30.08 in 10.0 mi ENE 19.6 mph 24.2 mph N/A   Overcast
9:55 AM 28.4 °F 15.4 °F 10.4 °F 47% 30.08 in 10.0 mi ENE 19.6 mph 23.0 mph N/A   Mostly Cloudy
10:15 AM 28.4 °F 17.0 °F 12.2 °F 51% 30.08 in 10.0 mi ENE 15.0 mph 20.7 mph N/A   Partly Cloudy
10:35 AM 30.2 °F 17.8 °F 12.2 °F 47% 30.09 in 10.0 mi East 19.6 mph 23.0 mph N/A   Partly Cloudy
10:55 AM 30.2 °F 17.8 °F 12.2 °F 47% 30.09 in 10.0 mi ENE 19.6 mph 24.2 mph N/A   Mostly Cloudy
11:15 AM 32.0 °F 20.5 °F 10.4 °F 41% 30.10 in 10.0 mi ENE 18.4 mph - N/A   Overcast
11:35 AM 33.8 °F 21.9 °F 10.4 °F 38% 30.11 in 10.0 mi ENE 21.9 mph 27.6 mph N/A   Overcast
11:55 AM 33.8 °F 22.8 °F 8.6 °F 35% 30.12 in 10.0 mi East 18.4 mph 27.6 mph N/A   Overcast
12:15 PM 33.8 °F 22.5 °F 8.6 °F 35% 30.12 in 10.0 mi East 19.6 mph 28.8 mph N/A   Scattered Clouds
12:35 PM 35.6 °F 24.2 °F 10.4 °F 35% 30.12 in 10.0 mi East 21.9 mph 26.5 mph N/A   Clear
12:55 PM 35.6 °F 24.5 °F 10.4 °F 35% 30.13 in 10.0 mi ENE 20.7 mph 25.3 mph N/A   Clear
1:15 PM 35.6 °F 24.8 °F 10.4 °F 35% 30.13 in 10.0 mi ENE 19.6 mph 26.5 mph N/A   Clear
1:35 PM 35.6 °F 25.9 °F 10.4 °F 35% 30.14 in 10.0 mi ENE 16.1 mph 26.5 mph N/A   Partly Cloudy
1:55 PM 35.6 °F 25.2 °F 10.4 °F 35% 30.15 in 10.0 mi ENE 18.4 mph 25.3 mph N/A   Mostly Cloudy
2:15 PM 35.6 °F 24.0 °F 8.6 °F 33% 30.15 in 10.0 mi ENE 23.0 mph - N/A   Mostly Cloudy
2:35 PM 35.6 °F 25.5 °F 10.4 °F 35% 30.15 in 10.0 mi ENE 17.3 mph 25.3 mph N/A   Partly Cloudy
2:55 PM 35.6 °F 26.2 °F 10.4 °F 35% 30.16 in 10.0 mi ENE 15.0 mph 21.9 mph N/A   Clear
3:15 PM 35.6 °F 25.5 °F 10.4 °F 35% 30.17 in 10.0 mi NE 17.3 mph 26.5 mph N/A   Clear
3:35 PM 37.4 °F 28.2 °F 10.4 °F 33% 30.17 in 10.0 mi ENE 16.1 mph 32.2 mph N/A   Clear
3:55 PM 35.6 °F 25.5 °F 10.4 °F 35% 30.17 in 10.0 mi ENE 17.3 mph 24.2 mph N/A   Clear
4:15 PM 37.4 °F 27.5 °F 10.4 °F 33% 30.18 in 10.0 mi ENE 18.4 mph 24.2 mph N/A   Clear
4:35 PM 37.4 °F 27.5 °F 10.4 °F 33% 30.18 in 10.0 mi ENE 18.4 mph 23.0 mph N/A   Clear
4:55 PM 37.4 °F 27.8 °F 10.4 °F 33% 30.18 in 10.0 mi ENE 17.3 mph - N/A   Clear
5:15 PM 37.4 °F 27.5 °F 10.4 °F 33% 30.19 in 10.0 mi ENE 18.4 mph 25.3 mph N/A   Clear
5:35 PM 37.4 °F 28.2 °F 12.2 °F 36% 30.20 in 10.0 mi ENE 16.1 mph 21.9 mph N/A   Clear
5:55 PM 35.6 °F 24.8 °F 10.4 °F 35% 30.21 in 10.0 mi NE 19.6 mph - N/A   Clear
6:15 PM 35.6 °F 26.6 °F 10.4 °F 35% 30.21 in 10.0 mi NE 13.8 mph 20.7 mph N/A   Clear
6:35 PM 35.6 °F 24.8 °F 10.4 °F 35% 30.22 in 10.0 mi NE 19.6 mph - N/A   Clear
6:55 PM 35.6 °F 25.5 °F 12.2 °F 38% 30.23 in 10.0 mi NE 17.3 mph 24.2 mph N/A   Clear
7:15 PM 33.8 °F 23.5 °F 10.4 °F 38% 30.23 in 10.0 mi NE 16.1 mph - N/A   Clear
7:35 PM 33.8 °F 24.8 °F 10.4 °F 38% 30.24 in 10.0 mi NE 12.7 mph - N/A   Clear
7:55 PM 32.0 °F 21.2 °F 10.4 °F 41% 30.24 in 10.0 mi NE 16.1 mph - N/A   Clear
8:15 PM 30.2 °F 19.3 °F 10.4 °F 44% 30.25 in 10.0 mi NE 15.0 mph 20.7 mph N/A   Clear
8:35 PM 30.2 °F 20.2 °F 10.4 °F 44% 30.25 in 10.0 mi NE 12.7 mph - N/A   Clear
8:55 PM 28.4 °F 17.5 °F 10.4 °F 47% 30.26 in 10.0 mi NE 13.8 mph - N/A   Clear
9:15 PM 28.4 °F 18.0 °F 12.2 °F 51% 30.27 in 10.0 mi NNE 12.7 mph - N/A   Clear
9:35 PM 28.4 °F 17.5 °F 12.2 °F 51% 30.28 in 10.0 mi NNE 13.8 mph - N/A   Clear
9:55 PM 26.6 °F 15.7 °F 12.2 °F 55% 30.29 in 10.0 mi NNE 12.7 mph - N/A   Clear
10:15 PM 26.6 °F 15.7 °F 12.2 °F 55% 30.29 in 10.0 mi NNE 12.7 mph - N/A   Clear
10:35 PM 26.6 °F 16.2 °F 12.2 °F 55% 30.29 in 10.0 mi NNE 11.5 mph - N/A   Clear
10:55 PM 24.8 °F 13.4 °F 12.2 °F 59% 30.30 in 10.0 mi NNE 12.7 mph - N/A   Clear
11:15 PM 24.8 °F 14.0 °F 12.2 °F 59% 30.30 in 10.0 mi NNE 11.5 mph - N/A   Clear
11:35 PM 24.8 °F 14.6 °F 10.4 °F 54% 30.30 in 10.0 mi NNE 10.4 mph - N/A   Clear
11:55 PM 24.8 °F 14.0 °F 10.4 °F 54% 30.30 in 10.0 mi NNE 11.5 mph - N/A   Clear